createdAt,value
2019-03-08T00:00:02.765Z,1.77
2019-03-08T00:02:32.780Z,1.30
2019-03-08T00:05:01.397Z,1.30
2019-03-08T00:07:29.869Z,0.90
2019-03-08T00:09:58.392Z,1.00
2019-03-08T00:12:26.857Z,1.40
2019-03-08T00:14:55.318Z,1.20
2019-03-08T00:17:23.825Z,1.13
2019-03-08T00:19:52.217Z,1.40
2019-03-08T00:22:20.737Z,1.50
2019-03-08T00:24:49.222Z,0.70
2019-03-08T00:27:17.728Z,0.80
2019-03-08T00:29:46.107Z,0.93
2019-03-08T00:32:14.658Z,0.93
2019-03-08T00:34:43.105Z,1.20
2019-03-08T00:37:13.603Z,0.90
2019-03-08T00:39:42.208Z,0.90
2019-03-08T00:42:10.541Z,1.40
2019-03-08T00:44:38.950Z,1.73
2019-03-08T00:47:07.342Z,1.63
2019-03-08T00:49:35.800Z,0.80
2019-03-08T00:52:04.314Z,1.10
2019-03-08T00:54:32.839Z,2.07
2019-03-08T00:57:01.327Z,0.90
2019-03-08T00:59:29.705Z,1.13
2019-03-08T01:01:58.360Z,1.10
2019-03-08T01:04:26.847Z,0.97
2019-03-08T01:06:55.260Z,0.50
2019-03-08T01:09:23.678Z,1.50
2019-03-08T01:11:52.134Z,1.27
2019-03-08T01:14:20.650Z,1.03
2019-03-08T01:16:49.204Z,0.97
2019-03-08T01:19:17.796Z,1.07
2019-03-08T01:21:46.342Z,1.00
2019-03-08T01:24:14.777Z,1.20
2019-03-08T01:26:43.829Z,1.03
2019-03-08T01:29:12.371Z,0.63
2019-03-08T01:31:40.777Z,1.20
2019-03-08T01:34:11.260Z,1.53
2019-03-08T01:36:39.799Z,0.80
2019-03-08T01:39:08.522Z,1.43
2019-03-08T01:41:36.943Z,1.00
2019-03-08T01:44:05.413Z,1.13
2019-03-08T01:46:33.905Z,1.53
2019-03-08T01:49:02.395Z,1.27
2019-03-08T01:51:30.780Z,1.50
2019-03-08T01:53:59.180Z,2.10
2019-03-08T01:56:27.569Z,0.90
2019-03-08T01:58:56.006Z,0.77
2019-03-08T02:01:24.401Z,1.83
2019-03-08T02:03:52.869Z,1.07
2019-03-08T02:06:21.417Z,1.33
2019-03-08T02:08:49.813Z,1.00
2019-03-08T02:11:18.339Z,1.20
2019-03-08T02:13:46.792Z,0.90
2019-03-08T02:16:15.320Z,1.10
2019-03-08T02:18:43.780Z,1.83
2019-03-08T02:21:12.206Z,1.40
2019-03-08T02:23:40.670Z,1.40
2019-03-08T02:26:09.130Z,1.20
2019-03-08T02:28:37.589Z,1.13
2019-03-08T02:31:06.044Z,0.80
2019-03-08T02:33:34.493Z,0.90
2019-03-08T02:36:03.043Z,0.60
2019-03-08T02:38:31.423Z,1.33
2019-03-08T02:40:59.833Z,0.50
2019-03-08T02:43:28.297Z,1.17
2019-03-08T02:45:56.871Z,0.60
2019-03-08T02:48:26.669Z,1.37
2019-03-08T02:50:55.063Z,0.80
2019-03-08T02:53:23.456Z,0.60
2019-03-08T02:55:51.862Z,0.60
2019-03-08T02:58:20.306Z,0.40
2019-03-08T03:00:48.689Z,0.60
2019-03-08T03:03:17.306Z,0.80
2019-03-08T03:05:45.736Z,0.50
2019-03-08T03:08:14.139Z,0.60
2019-03-08T03:10:42.609Z,0.40
2019-03-08T03:13:11.054Z,0.40
2019-03-08T03:15:39.471Z,0.60
2019-03-08T03:18:07.921Z,0.60
2019-03-08T03:20:36.642Z,0.67
2019-03-08T03:23:05.050Z,0.40
2019-03-08T03:25:33.569Z,0.57
2019-03-08T03:28:01.987Z,0.53
2019-03-08T03:30:30.493Z,0.50
2019-03-08T03:32:58.940Z,0.70
2019-03-08T03:35:27.325Z,0.60
2019-03-08T03:37:55.769Z,0.50
2019-03-08T03:40:24.294Z,0.70
2019-03-08T03:42:52.820Z,0.60
2019-03-08T03:45:21.390Z,0.60
2019-03-08T03:47:50.142Z,0.80
2019-03-08T03:50:18.888Z,0.60
2019-03-08T03:52:47.447Z,0.50
2019-03-08T03:55:17.131Z,0.40
2019-03-08T03:57:45.518Z,0.50
2019-03-08T04:00:21.417Z,0.63
2019-03-08T04:02:52.530Z,0.87
2019-03-08T04:05:20.941Z,0.60
2019-03-08T04:07:49.445Z,0.77
2019-03-08T04:10:18.243Z,0.60
2019-03-08T04:12:46.692Z,0.50
2019-03-08T04:15:16.587Z,0.70
2019-03-08T04:17:45.350Z,0.70
2019-03-08T04:20:20.692Z,0.80
2019-03-08T04:22:49.129Z,0.60
2019-03-08T04:25:17.573Z,0.50
2019-03-08T04:27:46.050Z,0.50
2019-03-08T04:30:16.912Z,0.47
2019-03-08T04:32:45.338Z,0.50
2019-03-08T04:35:13.727Z,0.50
2019-03-08T04:37:42.178Z,0.70
2019-03-08T04:40:12.940Z,0.50
2019-03-08T04:42:41.319Z,0.40
2019-03-08T04:45:14.768Z,0.40
2019-03-08T04:47:43.297Z,0.60
2019-03-08T04:50:13.981Z,0.50
2019-03-08T04:52:42.385Z,0.60
2019-03-08T04:55:21.397Z,0.80
2019-03-08T04:57:51.081Z,0.60
2019-03-08T05:00:19.712Z,0.60
2019-03-08T05:02:48.093Z,0.90
2019-03-08T05:05:16.577Z,0.70
2019-03-08T05:07:45.031Z,0.40
2019-03-08T05:10:15.788Z,0.53
2019-03-08T05:12:44.305Z,0.60
2019-03-08T05:15:12.771Z,0.50
2019-03-08T05:17:41.183Z,0.50
2019-03-08T05:20:10.508Z,0.60
2019-03-08T05:22:38.932Z,0.40
2019-03-08T05:25:09.430Z,0.40
2019-03-08T05:27:37.962Z,0.73
2019-03-08T05:30:17.037Z,0.40
2019-03-08T05:32:45.562Z,0.57
2019-03-08T05:35:16.895Z,0.70
2019-03-08T05:37:46.722Z,0.60
2019-03-08T05:40:17.190Z,0.57
2019-03-08T05:42:45.582Z,1.27
2019-03-08T05:45:15.625Z,0.40
2019-03-08T05:47:44.014Z,0.50
2019-03-08T05:50:12.787Z,0.60
2019-03-08T05:52:41.637Z,0.40
2019-03-08T05:55:11.450Z,0.70
2019-03-08T05:57:39.911Z,0.60
2019-03-08T06:00:18.050Z,0.50
2019-03-08T06:02:46.491Z,0.50
2019-03-08T06:05:16.614Z,0.40
2019-03-08T06:07:44.989Z,0.60
2019-03-08T06:10:30.686Z,0.80
2019-03-08T06:12:59.984Z,0.40
2019-03-08T06:15:28.425Z,0.67
2019-03-08T06:17:57.140Z,0.40
2019-03-08T06:20:25.529Z,0.40
2019-03-08T06:22:53.923Z,0.60
2019-03-08T06:25:22.335Z,0.50
2019-03-08T06:27:50.855Z,0.53
2019-03-08T06:30:19.302Z,0.70
2019-03-08T06:32:47.826Z,0.50
2019-03-08T06:35:16.224Z,0.53
2019-03-08T06:37:44.802Z,0.30
2019-03-08T06:40:14.126Z,0.57
2019-03-08T06:42:42.592Z,0.40
2019-03-08T06:45:16.994Z,0.50
2019-03-08T06:47:45.842Z,0.40
2019-03-08T06:50:17.123Z,0.50
2019-03-08T06:52:46.537Z,0.50
2019-03-08T06:55:16.482Z,0.40
2019-03-08T06:57:44.943Z,0.40
2019-03-08T07:00:19.859Z,0.40
2019-03-08T07:02:48.319Z,0.50
2019-03-08T07:05:16.760Z,0.40
2019-03-08T07:07:45.135Z,0.80
2019-03-08T07:10:13.614Z,0.40
2019-03-08T07:12:42.072Z,0.43
2019-03-08T07:15:10.474Z,0.57
2019-03-08T07:17:38.988Z,0.50
2019-03-08T07:20:21.706Z,0.50
2019-03-08T07:23:00.776Z,0.60
2019-03-08T07:25:39.956Z,0.50
2019-03-08T07:28:10.082Z,0.50
2019-03-08T07:30:57.859Z,0.47
2019-03-08T07:33:42.197Z,0.50
2019-03-08T07:36:28.826Z,0.60
2019-03-08T07:39:07.734Z,0.30
2019-03-08T07:41:52.961Z,0.40
2019-03-08T07:44:28.887Z,0.30
2019-03-08T07:47:17.672Z,0.40
2019-03-08T07:49:47.856Z,0.40
2019-03-08T07:52:26.900Z,0.30
2019-03-08T07:54:56.984Z,0.50
2019-03-08T07:57:29.513Z,0.40
2019-03-08T08:00:11.446Z,0.40
2019-03-08T08:03:03.455Z,0.40
2019-03-08T08:05:31.832Z,0.50
2019-03-08T08:08:08.055Z,0.50
2019-03-08T08:10:40.908Z,0.30
2019-03-08T08:13:13.998Z,0.73
2019-03-08T08:15:46.511Z,0.60
2019-03-08T08:18:19.685Z,0.50
2019-03-08T08:21:04.544Z,0.53
2019-03-08T08:23:37.098Z,0.30
2019-03-08T08:26:15.485Z,0.57
2019-03-08T08:28:51.401Z,0.60
2019-03-08T08:31:21.514Z,0.30
2019-03-08T08:34:00.274Z,0.70
2019-03-08T08:36:46.561Z,0.50
2019-03-08T08:39:28.511Z,0.57
2019-03-08T08:42:07.792Z,0.40
2019-03-08T08:44:55.988Z,0.50
2019-03-08T08:47:42.318Z,0.50
2019-03-08T08:50:24.443Z,0.50
2019-03-08T08:53:10.628Z,0.60
2019-03-08T08:55:43.906Z,0.33
2019-03-08T08:58:22.857Z,0.57
2019-03-08T09:01:04.883Z,0.50
2019-03-08T09:03:40.881Z,1.07
2019-03-08T09:06:17.023Z,0.67
2019-03-08T09:08:47.453Z,0.70
2019-03-08T09:11:17.626Z,0.43
2019-03-08T09:13:50.506Z,0.30
2019-03-08T09:16:26.265Z,0.50
2019-03-08T09:18:56.477Z,0.50
2019-03-08T09:21:32.511Z,0.37
2019-03-08T09:24:11.959Z,0.50
2019-03-08T09:26:54.605Z,0.50
2019-03-08T09:29:24.794Z,0.60
2019-03-08T09:32:00.385Z,0.40
2019-03-08T09:34:36.295Z,0.97
2019-03-08T09:37:22.377Z,0.50
2019-03-08T09:39:52.492Z,0.53
2019-03-08T09:42:34.937Z,0.40
2019-03-08T09:45:14.331Z,0.40
2019-03-08T09:47:56.670Z,0.70
2019-03-08T09:50:44.098Z,0.53
2019-03-08T09:53:20.048Z,0.50
2019-03-08T09:55:56.252Z,0.57
2019-03-08T09:58:28.812Z,0.40
2019-03-08T10:01:16.581Z,0.47
2019-03-08T10:03:46.370Z,0.40
2019-03-08T10:06:23.983Z,0.47
2019-03-08T10:08:54.119Z,0.30
2019-03-08T10:11:36.427Z,0.50
2019-03-08T10:14:21.342Z,0.50
2019-03-08T10:17:09.486Z,0.73
2019-03-08T10:19:42.635Z,0.70
2019-03-08T10:22:29.136Z,0.50
2019-03-08T10:25:15.787Z,0.40
2019-03-08T10:27:48.774Z,0.50
2019-03-08T10:30:21.610Z,0.50
2019-03-08T10:33:06.422Z,0.57
2019-03-08T10:35:42.487Z,0.40
2019-03-08T10:38:19.510Z,0.47
2019-03-08T10:40:44.433Z,0.50
2019-03-08T10:43:14.685Z,0.50
2019-03-08T10:45:44.740Z,0.60
2019-03-08T10:48:23.889Z,0.50
2019-03-08T10:50:53.950Z,0.37
2019-03-08T10:53:32.966Z,0.40
2019-03-08T10:56:06.006Z,0.40
2019-03-08T10:58:36.124Z,0.50
2019-03-08T11:01:15.435Z,0.40
2019-03-08T11:03:45.525Z,0.50
2019-03-08T11:06:27.675Z,0.60
2019-03-08T11:09:00.970Z,0.53
2019-03-08T11:11:47.139Z,0.50
2019-03-08T11:14:22.846Z,0.50
2019-03-08T11:17:01.644Z,0.90
2019-03-08T11:19:34.398Z,0.70
2019-03-08T11:22:13.201Z,0.60
2019-03-08T11:24:52.160Z,0.60
2019-03-08T11:27:28.109Z,0.50
2019-03-08T11:30:12.982Z,0.40
2019-03-08T11:32:49.043Z,0.40
2019-03-08T11:35:22.122Z,0.40
2019-03-08T11:38:08.604Z,1.03
2019-03-08T11:40:41.399Z,0.80
2019-03-08T11:43:20.483Z,0.90
2019-03-08T11:45:57.895Z,0.60
2019-03-08T11:48:37.161Z,0.53
2019-03-08T11:51:16.215Z,0.40
2019-03-08T11:53:46.421Z,0.50
2019-03-08T11:56:32.724Z,0.70
2019-03-08T11:59:19.275Z,0.57
2019-03-08T12:01:52.422Z,0.80
2019-03-08T12:04:22.941Z,0.70
2019-03-08T12:06:53.029Z,0.67
2019-03-08T12:09:40.830Z,0.90
2019-03-08T12:12:19.809Z,0.83
2019-03-08T12:15:02.054Z,1.13
2019-03-08T12:17:32.181Z,1.30
2019-03-08T12:20:02.277Z,1.67
2019-03-08T12:22:48.394Z,0.90
2019-03-08T12:25:21.330Z,1.60
2019-03-08T12:27:51.485Z,1.07
2019-03-08T12:30:30.601Z,0.93
2019-03-08T12:33:16.754Z,0.80
2019-03-08T12:35:58.964Z,0.97
2019-03-08T12:38:44.143Z,0.80
2019-03-08T12:41:17.885Z,1.00
2019-03-08T12:43:54.240Z,1.83
2019-03-08T12:46:42.632Z,1.07
2019-03-08T12:49:30.921Z,1.63
2019-03-08T12:52:01.011Z,1.20
2019-03-08T12:54:34.313Z,1.30
2019-03-08T12:57:07.530Z,1.53
2019-03-08T12:59:46.580Z,0.80
2019-03-08T13:02:16.682Z,0.97
2019-03-08T13:04:47.210Z,1.23
2019-03-08T13:07:17.314Z,1.70
2019-03-08T13:09:48.557Z,1.07
2019-03-08T13:12:17.046Z,1.73
2019-03-08T13:14:45.457Z,1.60
2019-03-08T13:17:13.846Z,0.90
2019-03-08T13:19:42.405Z,1.10
2019-03-08T13:22:10.858Z,1.30
2019-03-08T13:24:39.517Z,1.00
2019-03-08T13:27:07.928Z,1.13
2019-03-08T13:29:36.312Z,1.10
2019-03-08T13:32:05.867Z,1.30
2019-03-08T13:34:34.286Z,1.40
2019-03-08T13:37:02.859Z,1.20
2019-03-08T13:39:31.261Z,2.67
2019-03-08T13:41:59.849Z,1.33
2019-03-08T13:44:31.173Z,1.23
2019-03-08T13:46:59.717Z,1.30
2019-03-08T13:49:28.173Z,1.40
2019-03-08T13:51:56.618Z,1.30
2019-03-08T13:54:25.141Z,1.60
2019-03-08T13:56:53.676Z,0.83
2019-03-08T13:59:22.068Z,1.10
2019-03-08T14:01:50.499Z,1.07
2019-03-08T14:04:18.878Z,0.97
2019-03-08T14:06:48.999Z,1.30
2019-03-08T14:09:17.479Z,1.07
2019-03-08T14:11:45.987Z,1.53
2019-03-08T14:14:14.572Z,1.20
2019-03-08T14:16:43.776Z,1.00
2019-03-08T14:19:12.225Z,1.57
2019-03-08T14:21:40.612Z,1.30
2019-03-08T14:24:09.050Z,0.70
2019-03-08T14:26:56.889Z,1.63
2019-03-08T14:29:25.310Z,1.10
2019-03-08T14:31:55.513Z,1.70
2019-03-08T14:34:23.973Z,1.47
2019-03-08T14:36:52.540Z,1.70
2019-03-08T14:39:20.926Z,1.50
2019-03-08T14:41:54.658Z,1.63
2019-03-08T14:44:43.062Z,1.20
2019-03-08T14:47:22.086Z,1.20
2019-03-08T14:49:50.872Z,1.20
2019-03-08T14:52:21.495Z,1.27
2019-03-08T14:54:50.223Z,1.40
2019-03-08T14:57:27.078Z,1.10
2019-03-08T14:59:53.023Z,1.80
2019-03-08T15:02:19.725Z,2.20
2019-03-08T15:04:48.370Z,1.27
2019-03-08T15:07:16.811Z,1.80
2019-03-08T15:09:45.423Z,1.27
2019-03-08T15:12:16.773Z,1.57
2019-03-08T15:14:43.956Z,1.33
2019-03-08T15:17:13.279Z,1.00
2019-03-08T15:19:42.587Z,1.13
2019-03-08T15:22:11.152Z,1.00
2019-03-08T15:24:39.656Z,1.30
2019-03-08T15:27:08.102Z,1.53
2019-03-08T15:29:38.495Z,1.23
2019-03-08T15:32:08.782Z,1.43
2019-03-08T15:34:37.174Z,1.30
2019-03-08T15:37:05.791Z,1.57
2019-03-08T15:39:34.183Z,1.20
2019-03-08T15:42:03.473Z,1.20
2019-03-08T15:44:31.994Z,1.00
2019-03-08T15:47:00.531Z,1.20
2019-03-08T15:49:30.669Z,1.07
2019-03-08T15:51:59.935Z,1.00
2019-03-08T15:54:29.331Z,0.90
2019-03-08T15:56:57.797Z,1.40
2019-03-08T15:59:26.315Z,0.83
2019-03-08T16:01:54.849Z,1.03
2019-03-08T16:04:23.244Z,1.00
2019-03-08T16:06:51.765Z,0.87
2019-03-08T16:09:20.527Z,1.00
2019-03-08T16:11:49.143Z,0.97
2019-03-08T16:14:17.646Z,1.17
2019-03-08T16:16:46.119Z,0.90
2019-03-08T16:19:14.656Z,0.90
2019-03-08T16:21:46.908Z,0.93
2019-03-08T16:24:13.389Z,1.10
2019-03-08T16:26:41.958Z,1.40
2019-03-08T16:29:10.439Z,0.90
2019-03-08T16:31:46.182Z,1.47
2019-03-08T16:34:15.798Z,1.40
2019-03-08T16:36:45.927Z,1.03
2019-03-08T16:39:19.191Z,1.20
2019-03-08T16:41:49.262Z,1.13
2019-03-08T16:44:25.563Z,1.40
2019-03-08T16:47:04.349Z,1.10
2019-03-08T16:49:40.522Z,1.10
2019-03-08T16:52:13.269Z,1.50
2019-03-08T16:54:52.334Z,1.67
2019-03-08T16:57:39.089Z,1.50
2019-03-08T17:00:12.687Z,1.70
2019-03-08T17:02:58.990Z,1.20
2019-03-08T17:05:38.278Z,1.00
2019-03-08T17:08:08.310Z,1.03
2019-03-08T17:10:50.602Z,1.53
2019-03-08T17:13:29.687Z,2.13
2019-03-08T17:16:11.666Z,1.13
2019-03-08T17:18:53.955Z,2.13
2019-03-08T17:21:27.044Z,2.10
2019-03-08T17:23:57.078Z,1.63
2019-03-08T17:26:27.177Z,1.40
2019-03-08T17:29:00.070Z,1.60
2019-03-08T17:31:37.790Z,1.20
2019-03-08T17:34:24.522Z,1.33
2019-03-08T17:37:14.016Z,1.40
2019-03-08T17:39:49.818Z,1.50
2019-03-08T17:42:34.855Z,1.07
2019-03-08T17:45:07.878Z,1.30
2019-03-08T17:47:50.236Z,1.20
2019-03-08T17:50:35.201Z,1.87
2019-03-08T17:53:14.216Z,1.20
2019-03-08T17:55:44.284Z,1.60
2019-03-08T17:58:17.051Z,1.27
2019-03-08T18:01:05.288Z,1.10
2019-03-08T18:03:50.317Z,1.63
2019-03-08T18:06:29.641Z,1.30
2019-03-08T18:08:59.675Z,1.50
2019-03-08T18:11:38.438Z,1.57
2019-03-08T18:14:08.553Z,1.30
2019-03-08T18:16:38.586Z,2.00
2019-03-08T18:19:08.664Z,2.23
2019-03-08T18:21:38.705Z,1.40
2019-03-08T18:24:23.538Z,1.10
2019-03-08T18:26:49.828Z,1.23
2019-03-08T18:29:36.513Z,1.00
2019-03-08T18:32:18.585Z,1.63
2019-03-08T18:34:48.653Z,1.60
2019-03-08T18:37:34.985Z,1.10
2019-03-08T18:40:05.790Z,1.10
2019-03-08T18:42:35.835Z,1.23
2019-03-08T18:45:08.672Z,1.10
2019-03-08T18:47:44.819Z,1.30
2019-03-08T18:50:17.661Z,1.43
2019-03-08T18:53:04.184Z,1.90
2019-03-08T18:55:43.522Z,1.10
2019-03-08T18:58:13.669Z,1.73
2019-03-08T19:00:49.737Z,1.50
2019-03-08T19:03:19.790Z,1.40
2019-03-08T19:06:06.506Z,1.30
2019-03-08T19:08:36.571Z,1.60
2019-03-08T19:11:12.636Z,1.20
2019-03-08T19:13:45.516Z,1.83
2019-03-08T19:16:21.367Z,1.20
2019-03-08T19:18:51.517Z,1.30
2019-03-08T19:21:27.740Z,2.43
2019-03-08T19:24:06.840Z,1.90
2019-03-08T19:26:48.902Z,2.33
2019-03-08T19:29:30.954Z,1.30
2019-03-08T19:32:01.192Z,1.60
2019-03-08T19:34:43.242Z,1.60
2019-03-08T19:37:16.119Z,1.10
2019-03-08T19:39:49.264Z,1.17
2019-03-08T19:42:28.377Z,1.53
2019-03-08T19:45:13.796Z,1.20
2019-03-08T19:47:58.744Z,1.17
2019-03-08T19:50:31.550Z,1.20
2019-03-08T19:53:01.625Z,1.30
2019-03-08T19:55:34.370Z,1.27
2019-03-08T19:58:04.644Z,0.93
2019-03-08T20:00:49.679Z,1.23
2019-03-08T20:03:22.701Z,1.23
2019-03-08T20:06:04.752Z,1.50
2019-03-08T20:08:52.965Z,0.93
2019-03-08T20:11:38.055Z,1.10
2019-03-08T20:14:23.407Z,1.40
2019-03-08T20:17:09.986Z,0.90
2019-03-08T20:19:40.112Z,0.80
2019-03-08T20:22:12.780Z,1.07
2019-03-08T20:24:58.384Z,1.63
2019-03-08T20:27:28.707Z,2.53
2019-03-08T20:32:51.158Z,3.10
2019-03-08T20:35:24.416Z,1.93
2019-03-08T20:38:03.611Z,1.53
2019-03-08T20:40:33.695Z,1.23
2019-03-08T20:43:06.605Z,0.90
2019-03-08T20:45:42.562Z,1.30
2019-03-08T20:48:11.013Z,1.40
2019-03-08T20:50:39.652Z,1.10
2019-03-08T20:53:08.135Z,1.20
2019-03-08T20:55:36.546Z,1.00
2019-03-08T20:58:05.014Z,0.90
2019-03-08T21:00:33.516Z,0.60
2019-03-08T21:03:03.286Z,0.80
2019-03-08T21:05:31.785Z,0.50
2019-03-08T21:08:00.314Z,0.70
2019-03-08T21:10:29.100Z,0.60
2019-03-08T21:12:57.669Z,0.50
2019-03-08T21:15:26.131Z,0.50
2019-03-08T21:17:54.586Z,0.47
2019-03-08T21:20:23.030Z,0.40
2019-03-08T21:22:51.497Z,0.40
2019-03-08T21:25:19.999Z,0.43
2019-03-08T21:27:48.386Z,0.47
2019-03-08T21:30:20.834Z,0.40
2019-03-08T21:32:49.318Z,0.60
2019-03-08T21:35:17.717Z,0.30
2019-03-08T21:37:46.555Z,0.30
2019-03-08T21:40:15.141Z,0.40
2019-03-08T21:42:43.620Z,0.40
2019-03-08T21:45:15.338Z,0.30
2019-03-08T21:47:43.897Z,1.07
2019-03-08T21:50:18.612Z,1.30
2019-03-08T21:52:47.105Z,2.00
2019-03-08T21:55:15.496Z,0.90
2019-03-08T21:57:43.951Z,0.67
2019-03-08T22:00:17.543Z,0.43
2019-03-08T22:02:46.007Z,0.60
2019-03-08T22:05:15.660Z,0.67
2019-03-08T22:07:44.207Z,0.50
2019-03-08T22:10:14.607Z,0.50
2019-03-08T22:12:43.093Z,0.40
2019-03-08T22:15:11.770Z,0.30
2019-03-08T22:17:40.318Z,0.40
2019-03-08T22:20:08.831Z,0.50
2019-03-08T22:22:37.385Z,0.47
2019-03-08T22:25:07.159Z,0.80
2019-03-08T22:27:35.829Z,0.50
2019-03-08T22:30:07.690Z,0.40
2019-03-08T22:32:36.239Z,0.60
2019-03-08T22:35:05.317Z,0.50
2019-03-08T22:37:33.924Z,0.60
2019-03-08T22:40:02.397Z,0.50
2019-03-08T22:42:30.982Z,0.50
2019-03-08T22:44:59.437Z,0.50
2019-03-08T22:47:27.893Z,0.60
2019-03-08T22:49:56.455Z,0.37
2019-03-08T22:52:24.873Z,0.40
2019-03-08T22:54:53.713Z,0.60
2019-03-08T22:57:22.102Z,0.30
2019-03-08T22:59:50.531Z,0.30
2019-03-08T23:02:19.012Z,0.40
2019-03-08T23:04:47.476Z,0.90
2019-03-08T23:07:17.930Z,0.60
2019-03-08T23:09:46.110Z,0.40
2019-03-08T23:12:14.746Z,0.70
2019-03-08T23:14:43.199Z,0.50
2019-03-08T23:17:11.725Z,0.30
2019-03-08T23:19:40.372Z,0.60
2019-03-08T23:22:08.872Z,0.30
2019-03-08T23:24:37.274Z,1.47
2019-03-08T23:27:07.307Z,0.63
2019-03-08T23:29:37.371Z,0.50
2019-03-08T23:32:07.407Z,0.57
2019-03-08T23:34:35.918Z,0.50
2019-03-08T23:37:04.438Z,0.40
2019-03-08T23:39:32.918Z,0.40
2019-03-08T23:42:01.319Z,0.50
2019-03-08T23:44:29.762Z,0.50
2019-03-08T23:46:58.703Z,0.70
2019-03-08T23:49:27.611Z,0.90
2019-03-08T23:51:56.152Z,0.50
2019-03-08T23:54:24.549Z,0.80
2019-03-08T23:56:53.010Z,0.60
2019-03-08T23:59:21.498Z,0.50
